Nearby METAR Reports

 

KCMA - Camarillo, California, USA
Distance from station: WSW 4mi, 7km
Updated: Tue, 14-Aug-2018 1:55pm PDT
Clear
Clear
 Wind from WSW
Wind: WSW 10 mph , 17 km/h
Temperature: 81°F , 27°C
Heat Index: 82°F , 28°C
Dew Point: 63°F , 17°C
Humidity: 54%
Barometer: 29.89 inHg , 1012.2 hPa
Clouds: Clear
Visibility: 10 miles , 16 km
2018/08/14 20:55 KCMA 142055Z 25009KT 10SM CLR 27/17 A2989 RMK AO2 SLP129 T02670167 58007 $
KNTD - Point Mugu Nas, California, USA
Distance from station: SSW 9mi, 15km
Updated: Tue, 14-Aug-2018 1:58pm PDT
Partly cloudy
Partly cloudy
 Wind from SW
Wind: SW 8 mph , 13 km/h
Temperature: 75°F , 24°C
Dew Point: 63°F , 17°C
Humidity: 65%
Barometer: 29.91 inHg , 1012.9 hPa
Clouds: Partly cloudy
Visibility: 10 miles , 16 km
Cloud details: Partly cloudy 1100 ft
Partly cloudy 5000 ft
Partly cloudy 20000 ft
2018/08/14 20:58 KNTD 142058Z 23007KT 10SM SCT011 SCT050 SCT200 24/17 A2991 RMK AO2 SLP128 T02390172 57007 $
 
KOXR - Oxnard, California, USA
Distance from station: WSW 10mi, 16km
Updated: Tue, 14-Aug-2018 2:51pm PDT
Clear
Clear
 Wind from W
Wind: W 10 mph , 17 km/h
Temperature: 73°F , 23°C
Dew Point: 63°F , 17°C
Humidity: 69%
Barometer: 29.88 inHg , 1011.9 hPa
Clouds: Clear
Visibility: 10 miles , 16 km
2018/08/14 21:51 KOXR 142151Z 28009KT 10SM CLR 23/17 A2988 RMK AO2 SLP117 T02330172
KVNY - Van Nuys, California, USA
Distance from station: E 31mi, 50km
Updated: Tue, 14-Aug-2018 2:51pm PDT
Clear
Clear
 Wind from SSE
Wind: SSE 10 mph , 17 km/h
Temperature: 90°F , 32°C
Dew Point: 55°F , 13°C
Humidity: 31%
Barometer: 29.85 inHg , 1010.8 hPa
Clouds: Clear
Visibility: 10 miles , 16 km
2018/08/14 21:51 KVNY 142151Z 16009KT 130V190 10SM CLR 32/13 A2985 RMK AO2 SLP096 T03170133
 
KWHP - La / Whiteman, California, USA
Distance from station: E 35mi, 56km
Updated: Tue, 14-Aug-2018 2:55pm PDT
Clear
Clear
 Wind from calm
Wind: Calm
Temperature: 86°F , 30°C
Dew Point: 55°F , 13°C
Humidity: 35%
Barometer: 29.90 inHg , 1012.5 hPa
Clouds: Clear
Visibility: 10 miles , 16 km
2018/08/14 21:55 KWHP 142155Z 00000KT 10SM SKC 30/13 A2990
KSMO - Santa Monica, California, USA
Distance from station: ESE 36mi, 58km
Updated: Tue, 14-Aug-2018 2:51pm PDT
Clear
Clear
 Wind from SW
Wind: SW 13 mph , 20 km/h
Temperature: 73°F , 23°C
Dew Point: 64°F , 18°C
Humidity: 74%
Barometer: 29.88 inHg , 1011.9 hPa
Clouds: Clear
Visibility: 10 miles , 16 km
2018/08/14 21:51 KSMO 142151Z 22011KT 10SM CLR 23/18 A2988 RMK AO2 SLP115 T02330178
 
KBUR - Burbank, California, USA
Distance from station: E 38mi, 61km
Updated: Tue, 14-Aug-2018 2:53pm PDT
Clear
Clear
 Wind from S
Wind: S 12 mph , 19 km/h
Temperature: 84°F , 29°C
Heat Index: 83°F , 28°C
Dew Point: 57°F , 14°C
Humidity: 40%
Barometer: 29.86 inHg , 1011.2 hPa
Clouds: Clear
Visibility: 10 miles , 16 km
2018/08/14 21:53 KBUR 142153Z 18010KT 10SM CLR 29/14 A2986 RMK AO2 SLP097 T02890144
KSDB - Sandberg, California, USA
Distance from station: NNE 40mi, 64km
Updated: Tue, 14-Aug-2018 2:53pm PDT
Clear
Clear
 Wind from S
Wind: S 17 mph , 28 km/h, Gust: 23 mph , 37 km/h
Temperature: 88°F , 31°C
Dew Point: 43°F , 6°C
Humidity: 21%
Barometer: 30.06 inHg , 1017.9 hPa
Clouds: Clear
Visibility: 10 miles , 16 km
2018/08/14 21:53 KSDB 142153Z AUTO 18015G20KT 10SM CLR 31/06 A3006 RMK AO2 SLP115 T03060061
 
KLAX - Los Angeles, California, USA
Distance from station: ESE 42mi, 68km
Updated: Tue, 14-Aug-2018 2:53pm PDT
Partly cloudy
Partly cloudy
 Wind from WSW
Wind: WSW 15 mph , 24 km/h
Temperature: 75°F , 24°C
Dew Point: 63°F , 17°C
Humidity: 65%
Barometer: 29.88 inHg , 1011.9 hPa
Clouds: Partly cloudy
Visibility: 10 miles , 16 km
Cloud details: Few Clouds 1200 ft
Few Clouds 9000 ft
Partly cloudy 25000 ft
2018/08/14 21:53 KLAX 142153Z 25013KT 10SM FEW012 FEW090 SCT250 24/17 A2988 RMK AO2 SLP117 T02440172
KCQT - Los Angeles, California, USA
Distance from station: ESE 45mi, 73km
Updated: Tue, 14-Aug-2018 2:47pm PDT
Clear
Clear
 Wind from W
Wind: W 7 mph , 11 km/h
Temperature: 79°F , 26°C
Dew Point: 63°F , 17°C
Humidity: 58%
Barometer: 29.86 inHg , 1011.2 hPa
Clouds: Clear
Visibility: 10 miles , 16 km
2018/08/14 21:47 KCQT 142147Z AUTO 26006KT 10SM CLR 26/17 A2986 RMK AO2 SLP110 T02610167
 
KHHR - Hawthorne, California, USA
Distance from station: ESE 45mi, 73km
Updated: Tue, 14-Aug-2018 2:53pm PDT
Clear
Clear
 Wind from WSW
Wind: WSW 14 mph , 22 km/h
Temperature: 77°F , 25°C
Dew Point: 63°F , 17°C
Humidity: 61%
Barometer: 29.88 inHg , 1011.9 hPa
Clouds: Clear
Visibility: 10 miles , 16 km
2018/08/14 21:53 KHHR 142153Z 25012KT 10SM CLR 25/17 A2988 RMK AO2 SLP116 T02500172
KSBA - Santa Barbara, California, USA
Distance from station: WNW 49mi, 79km
Updated: Tue, 14-Aug-2018 2:53pm PDT
Clear
Clear
 Wind from SW
Wind: SW 7 mph , 11 km/h
Temperature: 75°F , 24°C
Dew Point: 63°F , 17°C
Humidity: 65%
Barometer: 29.88 inHg , 1011.9 hPa
Clouds: Clear
Visibility: 10 miles , 16 km
2018/08/14 21:53 KSBA 142153Z 23006KT 10SM CLR 24/17 A2988 RMK AO2 SLP118 T02390172